Time;durP1;ratioP1;P1;durP2;ratioP2;P2;SDS_P1;SDS_P2;PMS_P1;PMS_P2;Temp;Humidity;BMP_temperature;BMP_pressure;BME280_temperature;BME280_humidity;BME280_pressure;Samples;Min_cycle;Max_cycle;Signal;HPM_P1;HPM_P2
2022/04/07 00:00:05;;;;;;;;;;;;;;;16.12;47.67;98806.88;4941699;28;117156;-62
2022/04/07 00:02:31;;;;;;;;;;;;;;;16.10;47.42;98796.34;4942559;28;98286;-62
2022/04/07 00:04:57;;;;;;;;;;;;;;;16.10;47.50;98798.25;4943003;28;98284;-62
2022/04/07 00:07:23;;;;;;;;;;;;;;;16.09;47.58;98788.53;4941542;28;126686;-63
2022/04/07 00:09:48;;;;;;;;;;;;;;;16.09;47.44;98791.25;4940922;28;116717;-61
2022/04/07 00:12:14;;;;;;;;;;;;;;;16.07;47.54;98788.88;4941736;28;127996;-61
2022/04/07 00:14:40;;;;;;;;;;;;;;;16.07;47.67;98779.91;4938892;28;129258;-62
2022/04/07 00:17:06;;;;;;;;;;;;;;;16.07;47.84;98779.91;4941375;28;127756;-61
2022/04/07 00:19:32;;;;;;;;;;;;;;;16.05;47.78;98774.84;4942541;28;97874;-63
2022/04/07 00:21:59;;;;;;;;;;;;;;;16.04;47.86;98773.25;4942166;28;108564;-61
2022/04/07 00:24:25;;;;;;;;;;;;;;;16.04;47.63;98775.19;4942156;28;98154;-61
2022/04/07 00:26:51;;;;;;;;;;;;;;;16.03;47.80;98777.09;4942302;28;104432;-62
2022/04/07 00:29:17;;;;;;;;;;;;;;;16.02;47.77;98774.72;4942521;28;97748;-62
2022/04/07 00:31:43;;;;;;;;;;;;;;;16.01;47.45;98773.94;4942716;28;98906;-62
2022/04/07 00:34:10;;;;;;;;;;;;;;;16.01;47.52;98759.56;4942326;28;98409;-62
2022/04/07 00:36:35;;;;;;;;;;;;;;;15.99;47.45;98767.25;4940459;28;128171;-61
2022/04/07 00:39:02;;;;;;;;;;;;;;;15.99;47.61;98765.34;4941163;28;117655;-63
2022/04/07 00:41:28;;;;;;;;;;;;;;;15.98;47.81;98755.59;4941731;28;99118;-61
2022/04/07 00:43:54;;;;;;;;;;;;;;;15.98;47.71;98754.81;4957697;28;98475;-62
2022/04/07 00:46:20;;;;;;;;;;;;;;;15.97;47.74;98759.47;4941872;28;104649;-62
2022/04/07 00:48:46;;;;;;;;;;;;;;;15.95;47.69;98754.38;4941403;28;113927;-62
2022/04/07 00:51:12;;;;;;;;;;;;;;;15.95;48.00;98753.56;4940572;28;119575;-63
2022/04/07 00:53:38;;;;;;;;;;;;;;;15.94;47.56;98754.72;4941098;28;128118;-62
2022/04/07 00:56:04;;;;;;;;;;;;;;;15.92;47.71;98757.00;4955155;28;122627;-62
2022/04/07 00:58:30;;;;;;;;;;;;;;;15.92;47.73;98754.28;4939654;28;109793;-62
2022/04/07 01:00:57;;;;;;;;;;;;;;;15.91;47.62;98752.69;4955662;28;114504;-62
2022/04/07 01:03:23;;;;;;;;;;;;;;;15.89;47.55;98746.81;4935367;28;99596;-62
2022/04/07 01:05:49;;;;;;;;;;;;;;;15.89;47.83;98739.44;4941019;28;98327;-61
2022/04/07 01:08:15;;;;;;;;;;;;;;;15.88;47.97;98742.53;4950027;28;98106;-61
2022/04/07 01:10:42;;;;;;;;;;;;;;;15.86;47.65;98737.41;4940199;28;128757;-61
2022/04/07 01:13:08;;;;;;;;;;;;;;;15.85;47.66;98740.47;4940035;28;98446;-61
2022/04/07 01:15:34;;;;;;;;;;;;;;;15.85;47.83;98730.41;4941105;28;128384;-62
2022/04/07 01:18:03;;;;;;;;;;;;;;;15.84;47.83;98728.81;4941287;28;117294;-62
2022/04/07 01:20:29;;;;;;;;;;;;;;;15.84;47.92;98725.31;4940936;28;121457;-61
2022/04/07 01:22:55;;;;;;;;;;;;;;;15.82;47.68;98714.78;4956054;28;98133;-62
2022/04/07 01:25:22;;;;;;;;;;;;;;;15.81;47.77;98713.22;4955555;28;124928;-61
2022/04/07 01:27:49;;;;;;;;;;;;;;;15.80;47.95;98713.53;4940502;28;97894;-61
2022/04/07 01:30:15;;;;;;;;;;;;;;;15.80;47.71;98713.53;4940451;28;98892;-62
2022/04/07 01:32:45;;;;;;;;;;;;;;;15.78;47.66;98722.03;4939640;28;98637;-62
2022/04/07 01:35:12;;;;;;;;;;;;;;;15.77;47.86;98704.16;4941926;28;98331;-62
2022/04/07 01:37:38;;;;;;;;;;;;;;;15.77;47.58;98703.38;4942508;28;98018;-62
2022/04/07 01:40:06;;;;;;;;;;;;;;;15.75;47.76;98701.00;4940889;28;110300;-62
2022/04/07 01:42:34;;;;;;;;;;;;;;;15.75;47.70;98701.00;4941271;28;119438;-63
2022/04/07 01:45:02;;;;;;;;;;;;;;;15.73;47.93;98695.13;4954842;28;128549;-62
2022/04/07 01:47:28;;;;;;;;;;;;;;;15.73;47.92;98697.84;4940348;28;112746;-62
2022/04/07 01:49:57;;;;;;;;;;;;;;;15.73;47.90;98694.34;4938055;28;127452;-62
2022/04/07 01:52:23;;;;;;;;;;;;;;;15.70;48.10;98685.72;4939861;28;98162;-61
2022/04/07 01:54:50;;;;;;;;;;;;;;;15.70;47.99;98688.44;4955337;28;105735;-61
2022/04/07 01:57:16;;;;;;;;;;;;;;;15.69;47.76;98686.09;4954754;28;118014;-61
2022/04/07 01:59:42;;;;;;;;;;;;;;;15.68;47.79;98682.59;4955592;28;98997;-61
2022/04/07 02:02:08;;;;;;;;;;;;;;;15.67;47.73;98685.63;4937819;28;127090;-62
2022/04/07 02:04:34;;;;;;;;;;;;;;;15.66;48.08;98684.84;4940149;28;127465;-62
2022/04/07 02:07:00;;;;;;;;;;;;;;;15.67;47.97;98682.91;4941249;28;112717;-62
2022/04/07 02:09:25;;;;;;;;;;;;;;;15.65;47.82;98669.69;4948068;28;98279;-62
2022/04/07 02:11:51;;;;;;;;;;;;;;;15.64;47.80;98670.78;4940465;28;128457;-62
2022/04/07 02:14:17;;;;;;;;;;;;;;;15.64;48.06;98672.69;4937713;28;127443;-61
2022/04/07 02:16:43;;;;;;;;;;;;;;;15.63;48.06;98665.69;4939536;28;117934;-62
2022/04/07 02:19:09;;;;;;;;;;;;;;;15.60;47.85;98664.47;4940572;28;128481;-62
2022/04/07 02:21:35;;;;;;;;;;;;;;;15.60;47.77;98658.22;4954215;28;121559;-62
2022/04/07 02:24:01;;;;;;;;;;;;;;;15.60;47.79;98650.06;4941064;28;99086;-61
2022/04/07 02:26:27;;;;;;;;;;;;;;;15.59;48.05;98652.00;4940024;28;117337;-61
2022/04/07 02:28:53;;;;;;;;;;;;;;;15.57;48.10;98648.06;4940348;28;101133;-62
2022/04/07 02:31:19;;;;;;;;;;;;;;;15.56;48.10;98654.63;4940421;28;127566;-62
2022/04/07 02:33:45;;;;;;;;;;;;;;;15.55;48.15;98653.81;4940521;28;111046;-63
2022/04/07 02:36:13;;;;;;;;;;;;;;;15.54;47.91;98652.25;4940319;28;97799;-62
2022/04/07 02:38:39;;;;;;;;;;;;;;;15.54;47.86;98646.03;4940490;28;98430;-62
2022/04/07 02:41:05;;;;;;;;;;;;;;;15.53;47.89;98644.47;4938548;28;128481;-62
2022/04/07 02:43:31;;;;;;;;;;;;;;;15.52;47.89;98656.44;4938413;28;97983;-61
2022/04/07 02:45:57;;;;;;;;;;;;;;;15.50;47.97;98651.34;4937973;28;116557;-61
2022/04/07 02:48:23;;;;;;;;;;;;;;;15.49;48.14;98644.34;4937545;28;128668;-62
2022/04/07 02:50:49;;;;;;;;;;;;;;;15.49;47.90;98638.13;4936870;28;128303;-61
2022/04/07 02:53:15;;;;;;;;;;;;;;;15.48;48.01;98642.75;4954151;28;125830;-62
2022/04/07 02:55:41;;;;;;;;;;;;;;;15.47;48.17;98638.47;4940392;28;98085;-62
2022/04/07 02:58:07;;;;;;;;;;;;;;;15.46;48.00;98643.09;4940390;28;106671;-62
2022/04/07 03:00:33;;;;;;;;;;;;;;;15.45;48.17;98638.81;4940135;28;98249;-63
2022/04/07 03:02:59;;;;;;;;;;;;;;;15.44;48.10;98634.53;4939325;28;127520;-63
2022/04/07 03:05:24;;;;;;;;;;;;;;;15.44;47.98;98625.56;4938782;28;116304;-62
2022/04/07 03:07:50;;;;;;;;;;;;;;;15.43;47.85;98624.00;4947693;28;128724;-61
2022/04/07 03:10:16;;;;;;;;;;;;;;;15.43;48.16;98621.28;4938841;28;127716;-62
2022/04/07 03:12:42;;;;;;;;;;;;;;;15.42;48.05;98612.34;4939653;28;127120;-61
2022/04/07 03:15:09;;;;;;;;;;;;;;;15.41;48.11;98608.06;4922043;28;98183;-62
2022/04/07 03:17:34;;;;;;;;;;;;;;;15.41;48.18;98604.56;4939559;28;105866;-61
2022/04/07 03:20:01;;;;;;;;;;;;;;;15.40;48.11;98603.75;4943687;28;107927;-62
2022/04/07 03:22:27;;;;;;;;;;;;;;;15.39;48.11;98598.66;4943003;28;98069;-62
2022/04/07 03:24:53;;;;;;;;;;;;;;;15.39;48.43;98587.81;4943308;28;97824;-61
2022/04/07 03:27:19;;;;;;;;;;;;;;;15.38;48.27;98599.81;4943243;28;109441;-61
2022/04/07 03:29:45;;;;;;;;;;;;;;;15.37;48.38;98590.88;4942599;28;112332;-62
2022/04/07 03:32:11;;;;;;;;;;;;;;;15.36;48.55;98597.44;4942930;28;102989;-62
2022/04/07 03:34:37;;;;;;;;;;;;;;;15.35;48.09;98595.84;4943810;28;97862;-61
2022/04/07 03:37:04;;;;;;;;;;;;;;;15.35;48.18;98589.63;4941909;28;127727;-62
2022/04/07 03:39:30;;;;;;;;;;;;;;;15.34;48.17;98591.56;4957320;28;110142;-61
2022/04/07 03:41:56;;;;;;;;;;;;;;;15.35;48.42;98584.22;4942990;28;98685;-62
2022/04/07 03:44:22;;;;;;;;;;;;;;;15.33;48.50;98584.56;4942798;28;110043;-61
2022/04/07 03:46:48;;;;;;;;;;;;;;;15.33;48.21;98590.00;4942399;28;128909;-62
2022/04/07 03:49:14;;;;;;;;;;;;;;;15.32;48.40;98593.81;4941651;28;127780;-61
2022/04/07 03:51:40;;;;;;;;;;;;;;;15.31;48.58;98588.75;4942862;28;128380;-62
2022/04/07 03:54:06;;;;;;;;;;;;;;;15.32;48.61;98587.59;4944404;28;97689;-61
2022/04/07 03:56:32;;;;;;;;;;;;;;;15.30;48.27;98579.81;4943079;28;126288;-62
2022/04/07 03:58:58;;;;;;;;;;;;;;;15.30;48.09;98581.75;4942793;28;128344;-62
2022/04/07 04:01:28;;;;;;;;;;;;;;;15.29;48.06;98578.25;4942501;28;97964;-61
2022/04/07 04:03:54;;;;;;;;;;;;;;;15.30;48.40;98582.53;4943443;28;98438;-61
2022/04/07 04:06:20;;;;;;;;;;;;;;;15.30;48.49;98579.03;4942128;28;99391;-61
2022/04/07 04:08:46;;;;;;;;;;;;;;;15.29;48.58;98578.25;4942413;28;127446;-61
2022/04/07 04:11:12;;;;;;;;;;;;;;;15.30;48.67;98581.75;4942303;28;127497;-61
2022/04/07 04:13:39;;;;;;;;;;;;;;;15.30;48.60;98576.31;4943360;28;97680;-62
2022/04/07 04:16:05;;;;;;;;;;;;;;;15.30;48.60;98570.88;4942964;28;98830;-62
2022/04/07 04:18:31;;;;;;;;;;;;;;;15.31;48.67;98573.25;4941893;28;128706;-61
2022/04/07 04:20:57;;;;;;;;;;;;;;;15.31;48.35;98572.47;4942931;28;97828;-62
2022/04/07 04:23:23;;;;;;;;;;;;;;;15.32;48.46;98568.59;4942158;28;110792;-61
2022/04/07 04:25:49;;;;;;;;;;;;;;;15.32;48.63;98563.19;4941319;28;128180;-62
2022/04/07 04:28:15;;;;;;;;;;;;;;;15.33;48.27;98560.13;4939597;28;127192;-62
2022/04/07 04:30:41;;;;;;;;;;;;;;;15.35;48.58;98549.72;4937158;28;98256;-62
2022/04/07 04:33:06;;;;;;;;;;;;;;;15.37;48.46;98552.09;4938053;28;106322;-62
2022/04/07 04:35:32;;;;;;;;;;;;;;;15.38;48.29;98548.25;4938455;28;99542;-62
2022/04/07 04:37:59;;;;;;;;;;;;;;;15.40;48.57;98549.44;4937126;28;128681;-62
2022/04/07 04:40:24;;;;;;;;;;;;;;;15.41;48.25;98536.69;4938407;28;98157;-62
2022/04/07 04:42:51;;;;;;;;;;;;;;;15.43;48.52;98532.47;4936660;28;116249;-62
2022/04/07 04:45:17;;;;;;;;;;;;;;;15.46;48.46;98533.72;4935469;28;123590;-62
2022/04/07 04:47:42;;;;;;;;;;;;;;;15.47;48.16;98532.59;4937088;28;128008;-62
2022/04/07 04:50:09;;;;;;;;;;;;;;;15.51;48.50;98535.41;4952931;28;99658;-62
2022/04/07 04:52:35;;;;;;;;;;;;;;;15.52;48.36;98536.97;4938799;28;98362;-62
2022/04/07 04:55:00;;;;;;;;;;;;;;;15.55;48.39;98528.91;4938718;28;106595;-62
2022/04/07 04:57:27;;;;;;;;;;;;;;;15.59;48.37;98526.31;4936771;28;128187;-62
2022/04/07 04:59:53;;;;;;;;;;;;;;;15.62;48.34;98518.25;4934757;28;126897;-62
2022/04/07 05:02:19;;;;;;;;;;;;;;;15.67;48.14;98512.59;4937415;28;115724;-62
2022/04/07 05:04:45;;;;;;;;;;;;;;;15.69;48.41;98513.06;4937995;28;98188;-59
2022/04/07 05:07:11;;;;;;;;;;;;;;;15.77;48.03;98502.38;4938413;28;118843;-59
2022/04/07 05:09:38;;;;;;;;;;;;;;;15.85;48.11;98504.13;4937289;28;126795;-62
2022/04/07 05:12:05;;;;;;;;;;;;;;;15.93;47.93;98492.31;4937959;28;98088;-62
2022/04/07 05:14:31;;;;;;;;;;;;;;;15.99;47.76;98503.69;4937733;28;98328;-62
2022/04/07 05:16:57;;;;;;;;;;;;;;;16.06;47.80;98487.56;4937711;28;127232;-62
2022/04/07 05:19:23;;;;;;;;;;;;;;;16.14;47.60;98490.09;4937030;28;125878;-62
2022/04/07 05:21:50;;;;;;;;;;;;;;;16.24;47.67;98485.31;4937914;28;116745;-62
2022/04/07 05:24:17;;;;;;;;;;;;;;;16.34;47.71;98471.94;4938298;28;98247;-62
2022/04/07 05:26:44;;;;;;;;;;;;;;;16.44;47.65;98486.94;4937567;28;98336;-62
2022/04/07 05:29:10;;;;;;;;;;;;;;;16.51;47.64;98481.66;4938310;28;98208;-62
2022/04/07 05:31:36;;;;;;;;;;;;;;;16.58;47.64;98476.34;4934430;28;117782;-62
2022/04/07 05:34:02;;;;;;;;;;;;;;;16.66;47.41;98482.75;4936772;28;126861;-62
2022/04/07 05:36:28;;;;;;;;;;;;;;;16.72;47.43;98478.63;4937168;28;115634;-62
2022/04/07 05:38:54;;;;;;;;;;;;;;;16.80;47.33;98474.94;4936969;28;98503;-62
2022/04/07 05:41:20;;;;;;;;;;;;;;;16.89;47.42;98477.44;4937286;28;97930;-62
2022/04/07 05:43:46;;;;;;;;;;;;;;;16.97;47.10;98473.72;4937620;28;117775;-63
2022/04/07 05:46:12;;;;;;;;;;;;;;;17.03;47.12;98471.53;4937277;28;98220;-62
2022/04/07 05:48:38;;;;;;;;;;;;;;;17.09;47.18;98479.03;4937395;28;109780;-62
2022/04/07 05:51:04;;;;;;;;;;;;;;;17.14;47.14;98484.19;4936739;28;116664;-62
2022/04/07 05:53:30;;;;;;;;;;;;;;;17.22;47.07;98476.97;4937607;28;128197;-62
2022/04/07 05:55:58;;;;;;;;;;;;;;;17.29;46.93;98474.38;4936239;28;106159;-62
2022/04/07 05:58:24;;;;;;;;;;;;;;;17.37;46.95;98465.22;4936061;28;127508;-62
2022/04/07 06:00:51;;;;;;;;;;;;;;;17.44;46.91;98461.81;4937119;28;97781;-62
2022/04/07 06:03:16;;;;;;;;;;;;;;;17.54;46.96;98471.34;4937206;28;126685;-62
2022/04/07 06:05:42;;;;;;;;;;;;;;;17.66;46.61;98452.88;4935780;28;128176;-62
2022/04/07 06:08:08;;;;;;;;;;;;;;;17.82;46.61;98452.78;4941952;28;126708;-61
2022/04/07 06:10:34;;;;;;;;;;;;;;;17.94;46.66;98459.22;4936685;28;116625;-62
2022/04/07 06:13:00;;;;;;;;;;;;;;;18.07;46.34;98450.47;4937921;28;99271;-61
2022/04/07 06:15:28;;;;;;;;;;;;;;;18.21;46.39;98444.47;4935834;28;129331;-61
2022/04/07 06:17:54;;;;;;;;;;;;;;;18.33;46.24;98436.06;4937112;28;98004;-61
2022/04/07 06:20:21;;;;;;;;;;;;;;;18.40;46.14;98435.41;4937232;28;97997;-64
2022/04/07 06:22:47;;;;;;;;;;;;;;;18.49;46.23;98432.41;4930973;28;99007;-61
2022/04/07 06:25:13;;;;;;;;;;;;;;;18.60;46.24;98433.34;4933542;28;127652;-61
2022/04/07 06:27:40;;;;;;;;;;;;;;;18.73;46.08;98436.63;4935983;28;98434;-61
2022/04/07 06:30:09;;;;;;;;;;;;;;;18.89;45.82;98434.50;4935963;28;115335;-61
2022/04/07 06:32:35;;;;;;;;;;;;;;;19.19;45.39;98437.22;4936859;28;100311;-61
2022/04/07 06:35:01;;;;;;;;;;;;;;;19.49;45.39;98423.47;4951839;28;116168;-61
2022/04/07 06:37:27;;;;;;;;;;;;;;;19.95;44.65;98411.41;4936332;28;128037;-61
2022/04/07 06:40:03;;;;;;;;;;;;;;;20.31;44.43;98398.75;4938449;28;98117;-61
2022/04/07 06:42:29;;;;;;;;;;;;;;;20.54;44.16;98402.03;4935462;28;117207;-61
2022/04/07 06:44:55;;;;;;;;;;;;;;;20.69;44.20;98408.38;4936945;28;99032;-61
2022/04/07 06:47:24;;;;;;;;;;;;;;;20.83;44.06;98389.28;4934112;28;128661;-61
2022/04/07 06:49:50;;;;;;;;;;;;;;;21.00;44.21;98400.69;4935926;28;98248;-61
2022/04/07 06:52:17;;;;;;;;;;;;;;;20.97;44.20;98401.44;4935963;28;107751;-62
2022/04/07 06:54:42;;;;;;;;;;;;;;;20.96;44.30;98400.66;4939482;28;110169;-61
2022/04/07 06:57:08;;;;;;;;;;;;;;;21.11;44.22;98389.75;4939463;28;127468;-61
2022/04/07 06:59:34;;;;;;;;;;;;;;;21.13;44.23;98388.19;4939761;28;116210;-61
2022/04/07 07:02:00;;;;;;;;;;;;;;;21.19;44.27;98389.38;4940425;28;99086;-61
2022/04/07 07:04:26;;;;;;;;;;;;;;;21.30;44.02;98384.72;4938654;28;128595;-61
2022/04/07 07:06:52;;;;;;;;;;;;;;;21.35;44.08;98380.06;4938749;28;128209;-61
2022/04/07 07:09:18;;;;;;;;;;;;;;;21.32;44.06;98378.84;4939059;28;109673;-61
2022/04/07 07:11:44;;;;;;;;;;;;;;;21.21;44.33;98375.28;4938782;28;128035;-62
2022/04/07 07:14:10;;;;;;;;;;;;;;;21.23;44.29;98364.75;4939978;28;126798;-61
2022/04/07 07:16:35;;;;;;;;;;;;;;;21.23;44.22;98360.03;4940232;28;100540;-61
2022/04/07 07:19:01;;;;;;;;;;;;;;;21.20;44.40;98354.56;4939779;28;117437;-62
2022/04/07 07:21:27;;;;;;;;;;;;;;;21.19;44.34;98344.78;4952385;28;127602;-61
2022/04/07 07:23:53;;;;;;;;;;;;;;;21.22;44.25;98342.03;4940103;28;98382;-62
2022/04/07 07:26:19;;;;;;;;;;;;;;;21.29;44.07;98352.22;4939346;28;128239;-61
2022/04/07 07:28:45;;;;;;;;;;;;;;;21.31;44.08;98352.63;4937472;28;116079;-61
2022/04/07 07:31:11;;;;;;;;;;;;;;;21.31;44.13;98350.66;4938434;28;127400;-62
2022/04/07 07:33:37;;;;;;;;;;;;;;;21.41;43.91;98329.16;4938666;28;128705;-62
2022/04/07 07:36:03;;;;;;;;;;;;;;;21.57;43.71;98340.50;4939103;28;127380;-61
2022/04/07 07:38:29;;;;;;;;;;;;;;;21.74;43.56;98338.97;4939467;28;97897;-61
2022/04/07 07:40:55;;;;;;;;;;;;;;;21.78;43.70;98347.97;4938691;28;127930;-61
2022/04/07 07:43:21;;;;;;;;;;;;;;;21.79;43.66;98325.63;4939536;28;98448;-61
2022/04/07 07:45:47;;;;;;;;;;;;;;;22.02;43.27;98324.44;4917785;28;100213;-61
2022/04/07 07:48:13;;;;;;;;;;;;;;;22.41;42.94;98318.09;4953273;28;100885;-62
2022/04/07 07:50:45;;;;;;;;;;;;;;;22.96;42.16;98317.44;4938738;28;100045;-61
2022/04/07 07:53:11;;;;;;;;;;;;;;;23.63;41.35;98307.91;4939693;28;98363;-61
2022/04/07 07:55:38;;;;;;;;;;;;;;;23.85;41.36;98314.03;4939451;28;98245;-61
2022/04/07 07:58:04;;;;;;;;;;;;;;;24.21;41.04;98313.69;4939750;28;97954;-61
2022/04/07 08:00:29;;;;;;;;;;;;;;;24.54;41.13;98308.59;4938258;28;126217;-62
2022/04/07 08:02:55;;;;;;;;;;;;;;;24.87;41.00;98315.22;4938430;28;127245;-61
2022/04/07 08:05:21;;;;;;;;;;;;;;;24.28;41.63;98318.28;4937507;28;124861;-61
2022/04/07 08:07:47;;;;;;;;;;;;;;;24.00;42.27;98317.41;4941595;28;97916;-61
2022/04/07 08:10:14;;;;;;;;;;;;;;;23.86;42.04;98312.06;4939035;28;125671;-61
2022/04/07 08:12:40;;;;;;;;;;;;;;;24.05;41.71;98313.44;4938280;28;99091;-61
2022/04/07 08:15:07;;;;;;;;;;;;;;;24.19;41.62;98285.78;4937946;28;127901;-61
2022/04/07 08:17:33;;;;;;;;;;;;;;;24.09;41.46;98303.97;4938109;28;105632;-62
2022/04/07 08:19:59;;;;;;;;;;;;;;;24.14;41.30;98295.25;4939031;28;98593;-61
2022/04/07 08:22:25;;;;;;;;;;;;;;;24.40;40.72;98288.28;4938984;28;112324;-61
2022/04/07 08:24:50;;;;;;;;;;;;;;;24.80;40.45;98274.81;4938090;28;128275;-61
2022/04/07 08:27:16;;;;;;;;;;;;;;;25.08;39.88;98270.84;4938217;28;116797;-61
2022/04/07 08:29:42;;;;;;;;;;;;;;;25.75;39.09;98253.63;4937430;28;128239;-62
2022/04/07 08:32:08;;;;;;;;;;;;;;;26.99;37.90;98261.34;4938342;28;98822;-61
2022/04/07 08:34:35;;;;;;;;;;;;;;;26.53;38.56;98257.63;4938668;28;100425;-63
2022/04/07 08:37:02;;;;;;;;;;;;;;;26.31;39.03;98242.69;4938717;28;97982;-62
2022/04/07 08:39:28;;;;;;;;;;;;;;;26.46;39.04;98251.50;4939038;28;98253;-61
2022/04/07 08:41:54;;;;;;;;;;;;;;;26.79;38.56;98252.31;4937245;28;128284;-61
2022/04/07 08:44:21;;;;;;;;;;;;;;;26.73;38.59;98243.00;4932396;28;99358;-61
2022/04/07 08:46:56;;;;;;;;;;;;;;;26.58;38.76;98248.84;4937766;28;97830;-61
2022/04/07 08:49:22;;;;;;;;;;;;;;;26.55;38.93;98254.44;4938311;28;98643;-61
2022/04/07 08:51:51;;;;;;;;;;;;;;;26.22;39.36;98248.78;4938442;28;98576;-61
2022/04/07 08:54:21;;;;;;;;;;;;;;;26.15;39.33;98224.09;4952877;28;98070;-62
2022/04/07 08:56:47;;;;;;;;;;;;;;;26.81;38.35;98236.13;4938958;28;98073;-62
2022/04/07 08:59:13;;;;;;;;;;;;;;;27.49;37.29;98223.41;4937474;28;122321;-62
2022/04/07 09:01:40;;;;;;;;;;;;;;;29.09;35.86;98237.47;4937753;28;104210;-61
2022/04/07 09:04:05;;;;;;;;;;;;;;;28.99;36.30;98221.94;4939206;28;98520;-61
2022/04/07 09:06:35;;;;;;;;;;;;;;;30.61;34.31;98206.72;4937409;28;117116;-62
2022/04/07 09:09:16;;;;;;;;;;;;;;;29.29;36.40;98212.25;4943194;28;98504;-62
2022/04/07 09:11:42;;;;;;;;;;;;;;;32.50;32.73;98207.06;4938593;28;98568;-62
2022/04/07 09:14:10;;;;;;;;;;;;;;;33.62;32.24;98192.06;4936801;28;98280;-61
2022/04/07 09:16:37;;;;;;;;;;;;;;;35.08;30.75;98205.72;4937403;28;97823;-62
2022/04/07 09:19:03;;;;;;;;;;;;;;;34.41;32.10;98186.63;4938097;28;98281;-60
2022/04/07 09:21:31;;;;;;;;;;;;;;;33.45;33.04;98172.16;4937426;28;106382;-60
2022/04/07 09:23:58;;;;;;;;;;;;;;;32.26;34.42;98165.91;4938501;28;98631;-59
2022/04/07 09:26:24;;;;;;;;;;;;;;;32.31;34.15;98158.19;4938511;28;98154;-61
2022/04/07 09:28:54;;;;;;;;;;;;;;;31.36;34.95;98153.66;4937416;28;98826;-61
2022/04/07 09:31:22;;;;;;;;;;;;;;;31.31;34.83;98152.25;4936671;28;120861;-61
2022/04/07 09:33:55;;;;;;;;;;;;;;;30.80;34.93;98147.22;4938256;28;98357;-61
2022/04/07 09:36:21;;;;;;;;;;;;;;;30.01;35.89;98146.69;4937645;28;98760;-62
2022/04/07 09:39:05;;;;;;;;;;;;;;;30.38;34.82;98149.66;4938302;28;98183;-62
2022/04/07 09:41:31;;;;;;;;;;;;;;;30.62;34.59;98138.81;4937223;28;120788;-62
2022/04/07 09:43:59;;;;;;;;;;;;;;;29.68;35.04;98126.91;4937406;28;108678;-62
2022/04/07 09:46:34;;;;;;;;;;;;;;;29.05;36.04;98128.66;4937332;28;97874;-61
2022/04/07 09:49:10;;;;;;;;;;;;;;;28.55;36.06;98138.59;4938244;28;98195;-61
2022/04/07 09:51:46;;;;;;;;;;;;;;;28.04;36.47;98125.44;4951505;28;117348;-61
2022/04/07 09:54:16;;;;;;;;;;;;;;;28.57;35.37;98120.31;4937800;28;98189;-61
2022/04/07 09:56:42;;;;;;;;;;;;;;;28.10;35.62;98112.63;4937981;28;97938;-61
2022/04/07 09:59:09;;;;;;;;;;;;;;;27.65;35.65;98102.44;4952433;28;98305;-60
2022/04/07 10:01:38;;;;;;;;;;;;;;;27.29;35.33;98094.34;4937098;28;98568;-61
2022/04/07 10:04:04;;;;;;;;;;;;;;;26.83;35.55;98090.00;4937358;28;98503;-61
2022/04/07 10:06:33;;;;;;;;;;;;;;;26.51;35.44;98075.00;4951454;28;98023;-62
2022/04/07 10:09:03;;;;;;;;;;;;;;;26.96;34.70;98068.75;4938296;28;98824;-63
2022/04/07 10:11:31;;;;;;;;;;;;;;;29.79;31.35;98068.97;4936558;28;124506;-62
2022/04/07 10:13:57;;;;;;;;;;;;;;;28.27;33.56;98071.00;4936704;28;98402;-62
2022/04/07 10:16:23;;;;;;;;;;;;;;;29.46;32.31;98043.63;4936954;28;116323;-62
2022/04/07 10:18:54;;;;;;;;;;;;;;;30.01;32.47;98049.50;4932499;28;98161;-62
2022/04/07 10:21:43;;;;;;;;;;;;;;;30.68;32.55;98032.09;4931634;28;98094;-62
2022/04/07 10:24:12;;;;;;;;;;;;;;;29.86;34.22;98040.16;4936608;28;118624;-62
2022/04/07 10:26:41;;;;;;;;;;;;;;;29.97;34.31;98023.88;4937222;28;98324;-62
2022/04/07 10:29:08;;;;;;;;;;;;;;;30.86;33.48;98019.50;4951619;28;98261;-62
2022/04/07 10:31:33;;;;;;;;;;;;;;;30.98;34.18;98015.78;4931106;28;125481;-62
2022/04/07 10:34:06;;;;;;;;;;;;;;;31.24;34.12;98002.31;4931885;28;126714;-62
2022/04/07 10:36:38;;;;;;;;;;;;;;;29.92;35.86;97991.94;4936337;28;98072;-62
2022/04/07 10:39:09;;;;;;;;;;;;;;;29.31;36.85;97985.13;4937089;28;97982;-62
2022/04/07 10:41:38;;;;;;;;;;;;;;;28.72;37.52;98009.75;4913942;28;127025;-62
2022/04/07 10:44:14;;;;;;;;;;;;;;;28.08;38.15;97993.25;4935225;28;98431;-62
2022/04/07 10:46:40;;;;;;;;;;;;;;;27.54;38.72;97982.25;4936946;28;98526;-62
2022/04/07 10:49:07;;;;;;;;;;;;;;;27.29;39.14;97977.47;4936091;28;127973;-62
2022/04/07 10:51:49;;;;;;;;;;;;;;;27.72;38.10;97974.19;4936514;28;99130;-62
2022/04/07 10:54:15;;;;;;;;;;;;;;;27.81;38.12;97954.19;4936284;28;100574;-62
2022/04/07 10:56:52;;;;;;;;;;;;;;;27.68;38.38;97954.16;4937000;28;97910;-62
2022/04/07 10:59:21;;;;;;;;;;;;;;;27.28;39.18;97954.56;4936657;28;98597;-63
2022/04/07 11:01:59;;;;;;;;;;;;;;;26.78;39.83;97942.13;4931723;28;99512;-62
2022/04/07 11:04:24;;;;;;;;;;;;;;;26.39;40.05;97932.09;4936562;28;97901;-62
2022/04/07 11:07:09;;;;;;;;;;;;;;;26.18;40.08;97930.66;4937622;28;98687;-62
2022/04/07 11:10:11;;;;;;;;;;;;;;;25.84;40.47;97914.53;4932590;28;98247;-62
2022/04/07 11:12:39;;;;;;;;;;;;;;;25.48;40.75;97915.34;4936005;28;99058;-62
2022/04/07 11:15:05;;;;;;;;;;;;;;;25.41;40.72;97896.19;4936621;28;98551;-62
2022/04/07 11:17:34;;;;;;;;;;;;;;;25.29;40.69;97889.38;4936519;28;98171;-64
2022/04/07 11:20:20;;;;;;;;;;;;;;;25.21;40.70;97886.00;4932012;28;123940;-62
2022/04/07 11:22:58;;;;;;;;;;;;;;;25.05;40.92;97883.16;4937035;28;98411;-61
2022/04/07 11:25:32;;;;;;;;;;;;;;;24.94;41.22;97871.59;4934982;28;98112;-61
2022/04/07 11:28:22;;;;;;;;;;;;;;;24.89;41.25;97859.09;4936417;28;97877;-61
2022/04/07 11:30:52;;;;;;;;;;;;;;;24.58;41.60;97863.28;4937249;28;98244;-62
2022/04/07 11:33:27;;;;;;;;;;;;;;;24.40;41.74;97850.63;4936682;28;98513;-62
2022/04/07 11:35:59;;;;;;;;;;;;;;;24.16;42.19;97858.13;4936619;28;98324;-62
2022/04/07 11:38:37;;;;;;;;;;;;;;;23.94;42.56;97846.72;4936850;28;97852;-62
2022/04/07 11:41:07;;;;;;;;;;;;;;;23.71;42.91;97838.47;4938646;28;128392;-62
2022/04/07 11:43:35;;;;;;;;;;;;;;;23.51;43.13;97839.16;4939930;28;107406;-62
2022/04/07 11:46:04;;;;;;;;;;;;;;;23.26;43.44;97833.25;4940326;28;98435;-62
2022/04/07 11:48:31;;;;;;;;;;;;;;;23.06;43.79;97827.63;4940342;28;98014;-62
2022/04/07 11:51:00;;;;;;;;;;;;;;;22.89;44.10;97823.94;4940832;28;98331;-62
2022/04/07 11:53:26;;;;;;;;;;;;;;;22.72;44.29;97813.97;4939356;28;99831;-62
2022/04/07 11:55:52;;;;;;;;;;;;;;;22.57;44.34;97820.81;4939709;28;98231;-62
2022/04/07 11:58:18;;;;;;;;;;;;;;;22.45;44.30;97822.13;4937607;28;98068;-62
2022/04/07 12:00:44;;;;;;;;;;;;;;;22.34;44.70;97829.69;4937648;28;127638;-62
2022/04/07 12:03:10;;;;;;;;;;;;;;;22.24;44.83;97831.34;4938679;28;109504;-62
2022/04/07 12:05:40;;;;;;;;;;;;;;;22.13;44.92;97828.75;4939308;28;98301;-62
2022/04/07 12:08:10;;;;;;;;;;;;;;;21.99;45.03;97817.88;4939577;28;99872;-62
2022/04/07 12:10:38;;;;;;;;;;;;;;;21.89;45.20;97808.59;4954447;28;98939;-62
2022/04/07 12:13:04;;;;;;;;;;;;;;;21.79;45.41;97807.47;4936445;28;98921;-62
2022/04/07 12:15:30;;;;;;;;;;;;;;;21.69;45.41;97804.84;4951966;28;98373;-62
2022/04/07 12:18:09;;;;;;;;;;;;;;;21.58;45.52;97787.72;4939318;28;116298;-62
2022/04/07 12:20:35;;;;;;;;;;;;;;;21.53;45.69;97780.69;4939063;28;98963;-63
2022/04/07 12:23:12;;;;;;;;;;;;;;;21.55;45.69;97781.09;4938826;28;98322;-62
2022/04/07 12:25:40;;;;;;;;;;;;;;;21.70;45.52;97746.88;4939356;28;98235;-62
2022/04/07 12:28:16;;;;;;;;;;;;;;;21.78;45.45;97775.78;4940515;28;97778;-62
2022/04/07 12:30:49;;;;;;;;;;;;;;;21.72;45.53;97730.78;4939122;28;98430;-62
2022/04/07 12:33:40;;;;;;;;;;;;;;;21.68;45.79;97724.56;4936941;28;98595;-62
2022/04/07 12:36:11;;;;;;;;;;;;;;;21.77;45.60;97721.34;4933417;28;98156;-62
2022/04/07 12:38:37;;;;;;;;;;;;;;;21.80;45.64;97710.34;4936026;28;98044;-64
2022/04/07 12:41:13;;;;;;;;;;;;;;;21.73;45.72;97702.22;4938270;28;126789;-62